Time;durP1;ratioP1;P1;durP2;ratioP2;P2;SDS_P1;SDS_P2;PMS_P1;PMS_P2;Temp;Humidity;BMP_temperature;BMP_pressure;BME280_temperature;BME280_humidity;BME280_pressure;Samples;Min_cycle;Max_cycle;Signal;HPM_P1;HPM_P2
2022/09/24 00:01:09;;;;;;;7.28;5.22;;;;;;;10.64;80.05;96049.13;4997245;28;20070;-78
2022/09/24 00:03:36;;;;;;;9.48;4.93;;;;;;;10.63;80.03;96060.34;4996897;28;20046;-77
2022/09/24 00:06:04;;;;;;;7.32;5.55;;;;;;;10.59;79.86;96052.00;4996872;28;20050;-78
2022/09/24 00:08:30;;;;;;;8.07;5.47;;;;;;;10.58;79.97;96044.97;4996646;28;20405;-79
2022/09/24 00:11:01;;;;;;;9.25;5.82;;;;;;;10.53;79.86;96042.44;4996925;28;20065;-79
2022/09/24 00:13:30;;;;;;;8.20;5.43;;;;;;;10.51;79.45;96044.69;4995799;28;20051;-78
2022/09/24 00:15:56;;;;;;;8.75;5.65;;;;;;;10.47;79.73;96041.00;4996098;28;20054;-77
2022/09/24 00:18:25;;;;;;;9.25;6.05;;;;;;;10.45;79.72;96040.53;4997229;28;20054;-78
2022/09/24 00:20:52;;;;;;;9.00;5.50;;;;;;;10.42;80.31;96041.97;4993643;28;20050;-78
2022/09/24 00:23:18;;;;;;;7.10;5.00;;;;;;;10.43;80.52;96042.78;4996509;28;20052;-78
2022/09/24 00:28:33;;;;;;;8.75;5.88;;;;;;;10.37;80.01;96049.50;4997134;28;20056;-78
2022/09/24 00:31:05;;;;;;;7.43;5.13;;;;;;;10.36;80.74;96042.47;4997388;28;20064;-78
2022/09/24 00:33:33;;;;;;;9.45;5.70;;;;;;;10.37;81.21;96038.63;4994208;28;20494;-78
2022/09/24 00:36:02;;;;;;;7.00;4.93;;;;;;;10.35;81.19;96030.00;4994965;28;20149;-77
2022/09/24 00:38:28;;;;;;;9.50;5.70;;;;;;;10.34;81.01;96033.84;4996954;28;20054;-79
2022/09/24 00:40:55;;;;;;;7.97;5.93;;;;;;;10.29;81.18;96031.31;4996194;28;20056;-78
2022/09/24 00:43:27;;;;;;;8.77;5.28;;;;;;;10.29;81.53;96028.56;4997592;28;20051;-78
2022/09/24 00:46:00;;;;;;;7.22;5.32;;;;;;;10.28;81.61;96025.03;4997370;28;20050;-78
2022/09/24 00:48:27;;;;;;;11.20;5.70;;;;;;;10.30;81.98;96032.91;4997123;28;20058;-79
2022/09/24 00:50:54;;;;;;;8.43;5.80;;;;;;;10.28;81.92;96029.69;4998456;28;20054;-79
2022/09/24 00:53:27;;;;;;;9.10;5.75;;;;;;;10.29;81.30;96025.84;4997147;28;20053;-78
2022/09/24 00:55:56;;;;;;;8.35;5.38;;;;;;;10.28;81.04;96026.97;4990592;28;20061;-78
2022/09/24 00:58:23;;;;;;;8.15;5.60;;;;;;;10.25;81.79;96031.13;4999434;28;20046;-78
2022/09/24 01:00:54;;;;;;;6.75;5.55;;;;;;;10.25;81.59;96024.91;4999184;28;20060;-78
2022/09/24 01:03:25;;;;;;;10.10;6.57;;;;;;;10.27;81.98;96022.66;4999076;28;20051;-79
2022/09/24 01:05:52;;;;;;;8.48;5.55;;;;;;;10.20;82.24;96013.03;4999252;28;20054;-78
2022/09/24 01:08:19;;;;;;;8.20;5.78;;;;;;;10.22;82.12;96020.84;4997098;28;20419;-79
2022/09/24 01:11:04;;;;;;;9.00;6.13;;;;;;;10.23;82.43;96016.22;4995831;28;20047;-78
2022/09/24 01:13:49;;;;;;;8.52;5.50;;;;;;;10.23;82.64;96016.22;4997029;28;20044;-78
2022/09/24 01:16:22;;;;;;;8.73;5.90;;;;;;;10.22;82.32;96012.69;4996319;28;20482;-78
2022/09/24 01:18:59;;;;;;;8.98;5.72;;;;;;;10.19;82.32;96006.00;4994294;28;20475;-78
2022/09/24 01:21:37;;;;;;;8.55;5.32;;;;;;;10.28;82.18;96010.63;4999530;28;20046;-78
2022/09/24 01:24:28;;;;;;;8.98;5.55;;;;;;;10.31;82.60;96005.34;4997077;28;20096;-77
2022/09/24 01:27:03;;;;;;;10.38;5.85;;;;;;;10.31;82.44;95997.19;4997485;28;20114;-78
2022/09/24 01:29:40;;;;;;;7.65;5.32;;;;;;;10.33;82.37;95996.84;4996369;28;20050;-79
2022/09/24 01:32:14;;;;;;;9.07;5.55;;;;;;;10.33;82.35;96003.09;4993719;28;20061;-78
2022/09/24 01:34:45;;;;;;;8.77;6.00;;;;;;;10.33;82.06;95999.56;4992673;28;20050;-78
2022/09/24 01:37:16;;;;;;;7.35;5.57;;;;;;;10.32;81.90;95992.53;4993272;28;20046;-78
2022/09/24 01:39:49;;;;;;;8.32;5.60;;;;;;;10.28;81.97;95997.03;4993087;28;20050;-78
2022/09/24 01:42:19;;;;;;;7.28;5.30;;;;;;;10.28;82.11;95986.94;4993003;28;20042;-78
2022/09/24 01:44:48;;;;;;;7.60;5.78;;;;;;;10.26;82.22;95988.41;4993124;28;20042;-76
2022/09/24 01:47:20;;;;;;;7.00;5.28;;;;;;;10.24;82.16;95985.22;4992999;28;20046;-78
2022/09/24 01:49:46;;;;;;;9.68;5.68;;;;;;;10.24;82.07;95979.78;4992978;28;20042;-78
2022/09/24 01:52:19;;;;;;;7.47;5.38;;;;;;;10.23;82.40;95978.13;4994279;28;20055;-78
2022/09/24 01:54:50;;;;;;;6.88;5.47;;;;;;;10.22;82.46;95965.63;4996381;28;20056;-78
2022/09/24 01:57:21;;;;;;;9.13;5.55;;;;;;;10.19;82.39;95961.66;4996391;28;20505;-78
2022/09/24 01:59:55;;;;;;;6.68;5.18;;;;;;;10.15;82.19;95971.59;4996399;28;20050;-79
2022/09/24 02:02:28;;;;;;;7.40;5.70;;;;;;;10.12;82.29;95967.56;4996266;28;20047;-78
2022/09/24 02:05:02;;;;;;;7.78;5.97;;;;;;;10.08;82.05;95966.66;4995593;28;20043;-78
2022/09/24 02:07:34;;;;;;;9.00;6.05;;;;;;;10.07;81.87;95970.47;4995596;28;20050;-78
2022/09/24 02:10:01;;;;;;;9.57;5.95;;;;;;;10.04;82.58;95965.69;4996383;28;20043;-78
2022/09/24 02:12:31;;;;;;;6.97;5.18;;;;;;;10.02;82.27;95959.75;4996508;28;20053;-78
2022/09/24 02:15:04;;;;;;;8.23;5.80;;;;;;;9.98;82.35;95955.31;4995907;28;20054;-78
2022/09/24 02:17:35;;;;;;;8.52;6.00;;;;;;;9.94;82.21;95955.16;4996181;28;20054;-78
2022/09/24 02:20:04;;;;;;;8.82;5.95;;;;;;;9.87;82.30;95957.59;4996637;28;20074;-78
2022/09/24 02:22:32;;;;;;;10.18;6.55;;;;;;;9.77;82.55;95960.63;4997342;28;20046;-78
2022/09/24 02:25:04;;;;;;;8.70;5.97;;;;;;;9.74;82.42;95950.38;4993863;28;20049;-79
2022/09/24 02:27:30;;;;;;;8.70;5.53;;;;;;;9.73;82.81;95943.38;4995438;28;20510;-77
2022/09/24 02:29:58;;;;;;;9.27;6.32;;;;;;;9.64;83.01;95946.88;4994966;28;20061;-78
2022/09/24 02:32:29;;;;;;;8.40;6.55;;;;;;;9.47;83.02;95946.91;4995099;28;20047;-77
2022/09/24 02:35:01;;;;;;;9.75;5.80;;;;;;;9.55;82.99;95940.66;4995151;28;20057;-78
2022/09/24 02:37:29;;;;;;;6.97;5.53;;;;;;;9.59;83.27;95947.03;4995015;28;20141;-78
2022/09/24 02:39:55;;;;;;;9.23;5.95;;;;;;;9.64;83.52;95941.44;4995190;28;20062;-78
2022/09/24 02:42:23;;;;;;;8.75;5.93;;;;;;;9.65;83.69;95939.50;4995148;28;20077;-78
2022/09/24 02:44:51;;;;;;;9.90;6.57;;;;;;;9.64;83.37;95937.91;4994738;28;20046;-78
2022/09/24 02:47:18;;;;;;;9.80;6.35;;;;;;;9.64;82.92;95929.75;4994905;28;20227;-78
2022/09/24 02:49:46;;;;;;;8.05;6.07;;;;;;;9.60;83.41;95924.16;4994937;28;20073;-78
2022/09/24 02:52:12;;;;;;;11.93;6.72;;;;;;;9.58;83.23;95926.41;4996380;28;20046;-78
2022/09/24 02:54:39;;;;;;;9.13;6.50;;;;;;;9.57;83.57;95924.81;4994389;28;20502;-79
2022/09/24 02:57:08;;;;;;;8.95;6.50;;;;;;;9.58;83.62;95920.19;4994371;28;20054;-80
2022/09/24 02:59:36;;;;;;;9.95;6.57;;;;;;;9.56;83.70;95923.22;4994347;28;20043;-78
2022/09/24 03:02:03;;;;;;;10.02;6.80;;;;;;;9.55;83.80;95921.66;4994805;28;20050;-78
2022/09/24 03:04:30;;;;;;;8.75;6.28;;;;;;;9.57;83.87;95924.81;4993962;28;20047;-77
2022/09/24 03:06:58;;;;;;;10.50;6.47;;;;;;;9.56;83.22;95912.38;4993994;28;20462;-77
2022/09/24 03:09:25;;;;;;;9.52;6.60;;;;;;;9.54;83.31;95913.78;4994350;28;20046;-78
2022/09/24 03:11:51;;;;;;;10.18;6.85;;;;;;;9.53;83.44;95913.00;4994498;28;20046;-78
2022/09/24 03:14:18;;;;;;;10.48;6.35;;;;;;;9.52;83.84;95908.69;4993873;28;20061;-77
2022/09/24 03:16:44;;;;;;;8.65;6.13;;;;;;;9.56;83.85;95920.53;4993929;28;20050;-76
2022/09/24 03:19:11;;;;;;;9.63;6.80;;;;;;;9.53;84.12;95914.91;4994243;28;20054;-77
2022/09/24 03:21:37;;;;;;;9.40;7.03;;;;;;;9.50;84.28;95912.81;4993611;28;20573;-78
2022/09/24 03:24:06;;;;;;;10.13;6.72;;;;;;;9.47;83.80;95916.22;4994060;28;20061;-77
2022/09/24 03:26:33;;;;;;;8.55;6.72;;;;;;;9.46;83.92;95912.69;4993936;28;20053;-78
2022/09/24 03:28:59;;;;;;;9.48;6.60;;;;;;;9.46;84.18;95911.91;4993594;28;20061;-77
2022/09/24 03:31:26;;;;;;;8.27;6.38;;;;;;;9.46;84.48;95918.13;4993848;28;20050;-78
2022/09/24 03:33:53;;;;;;;13.88;6.93;;;;;;;9.43;84.55;95916.03;4993903;28;20053;-77
2022/09/24 03:36:22;;;;;;;10.10;6.75;;;;;;;9.47;84.86;95919.72;4993290;28;20058;-77
2022/09/24 03:38:49;;;;;;;9.13;6.53;;;;;;;9.49;84.66;95919.38;4993841;28;20050;-77
2022/09/24 03:41:17;;;;;;;10.23;7.00;;;;;;;9.49;84.92;95917.47;4993696;28;20046;-78
2022/09/24 03:43:44;;;;;;;13.68;8.23;;;;;;;9.46;84.80;95911.91;4993641;28;20046;-78
2022/09/24 03:46:12;;;;;;;13.18;8.20;;;;;;;9.47;84.85;95908.84;4993259;28;20046;-77
2022/09/24 03:48:40;;;;;;;16.08;9.63;;;;;;;9.50;84.87;95913.66;4993759;28;20038;-78
2022/09/24 03:51:08;;;;;;;18.73;9.55;;;;;;;9.46;85.09;95917.34;4994992;28;20130;-78
2022/09/24 03:53:35;;;;;;;14.05;8.38;;;;;;;9.42;84.85;95919.88;4993416;28;20061;-78
2022/09/24 03:56:02;;;;;;;11.13;7.53;;;;;;;9.34;85.07;95904.38;4993243;28;20061;-78
2022/09/24 03:58:30;;;;;;;15.43;8.70;;;;;;;9.28;85.45;95916.53;4993268;28;20685;-78
2022/09/24 04:00:58;;;;;;;12.55;8.57;;;;;;;9.34;85.32;95905.19;4993138;28;20557;-77
2022/09/24 04:03:25;;;;;;;12.93;7.82;;;;;;;9.40;85.16;95909.34;4993725;28;20049;-78
2022/09/24 04:05:52;;;;;;;12.27;8.52;;;;;;;9.38;85.20;95905.34;4992967;28;20053;-78
2022/09/24 04:08:19;;;;;;;9.95;7.03;;;;;;;9.45;85.10;95904.84;4993244;28;20048;-78
2022/09/24 04:10:46;;;;;;;10.85;7.00;;;;;;;9.51;85.03;95909.00;4975381;28;20046;-78
2022/09/24 04:13:15;;;;;;;10.57;7.22;;;;;;;9.53;85.17;95915.72;4993380;28;20181;-77
2022/09/24 04:15:43;;;;;;;10.57;6.82;;;;;;;9.57;85.32;95911.25;4992743;28;20086;-78
2022/09/24 04:18:10;;;;;;;12.25;7.32;;;;;;;9.60;85.49;95901.63;4992220;28;20057;-77
2022/09/24 04:20:37;;;;;;;9.50;7.20;;;;;;;9.64;85.62;95902.59;4993932;28;20054;-77
2022/09/24 04:23:04;;;;;;;8.93;6.30;;;;;;;9.63;85.62;95893.63;4993068;28;20050;-78
2022/09/24 04:25:32;;;;;;;8.88;6.78;;;;;;;9.60;85.51;95885.31;4992627;28;20051;-78
2022/09/24 04:28:00;;;;;;;8.25;6.43;;;;;;;9.66;85.33;95881.31;4992913;28;20046;-78
2022/09/24 04:30:28;;;;;;;9.65;7.13;;;;;;;9.65;85.43;95875.06;4992699;28;20058;-78
2022/09/24 04:32:59;;;;;;;10.52;6.57;;;;;;;9.70;85.41;95873.31;4992787;28;20050;-78
2022/09/24 04:35:28;;;;;;;8.23;5.88;;;;;;;9.69;85.49;95872.50;4993305;28;20105;-77
2022/09/24 04:37:55;;;;;;;8.38;6.63;;;;;;;9.74;85.50;95879.69;4993669;28;20093;-78
2022/09/24 04:40:22;;;;;;;10.40;6.40;;;;;;;9.76;85.60;95882.88;4993686;28;20062;-78
2022/09/24 04:42:48;;;;;;;7.57;5.68;;;;;;;9.76;85.78;95882.88;4994770;28;20050;-77
2022/09/24 04:45:16;;;;;;;7.72;6.05;;;;;;;9.77;85.49;95879.06;4994302;28;20054;-78
2022/09/24 04:47:43;;;;;;;8.77;5.90;;;;;;;9.76;85.90;95880.16;4997956;28;20046;-78
2022/09/24 04:50:14;;;;;;;9.13;6.72;;;;;;;9.73;85.72;95880.81;5002603;28;20520;-78
2022/09/24 04:52:40;;;;;;;7.55;6.35;;;;;;;9.71;85.55;95872.19;5021564;28;20072;-77
2022/09/24 04:55:07;;;;;;;8.77;6.15;;;;;;;9.75;85.90;95879.38;5011280;28;20053;-77
2022/09/24 04:57:35;;;;;;;13.07;7.07;;;;;;;9.71;85.85;95883.06;5001642;28;20051;-77
2022/09/24 05:00:03;;;;;;;11.57;6.85;;;;;;;9.69;85.57;95883.38;5001406;28;20047;-77
2022/09/24 05:02:30;;;;;;;9.40;7.00;;;;;;;9.72;85.83;95882.75;5003892;28;20050;-77
2022/09/24 05:04:57;;;;;;;10.38;7.22;;;;;;;9.73;85.75;95880.81;5001364;28;20050;-76
2022/09/24 05:07:25;;;;;;;9.52;7.20;;;;;;;9.75;85.85;95887.53;5019464;28;20053;-77
2022/09/24 05:09:51;;;;;;;10.77;7.55;;;;;;;9.79;85.63;95887.69;5004072;28;20286;-77
2022/09/24 05:12:19;;;;;;;9.27;7.03;;;;;;;9.75;84.94;95886.72;4995958;28;20054;-77
2022/09/24 05:14:45;;;;;;;11.13;6.40;;;;;;;9.73;85.04;95886.25;4996495;28;20078;-77
2022/09/24 05:17:12;;;;;;;9.35;6.82;;;;;;;9.75;85.53;95878.56;4996459;28;20054;-77
2022/09/24 05:19:38;;;;;;;13.68;8.98;;;;;;;9.70;85.51;95879.53;4994308;28;20047;-77
2022/09/24 05:22:05;;;;;;;17.02;10.15;;;;;;;9.70;85.85;95884.19;4996362;28;20046;-75
2022/09/24 05:24:33;;;;;;;19.02;10.65;;;;;;;9.72;85.71;95877.31;4993270;28;20601;-76
2022/09/24 05:27:08;;;;;;;20.30;10.98;;;;;;;9.74;85.79;95877.78;4996555;28;20062;-77
2022/09/24 05:29:35;;;;;;;19.00;9.93;;;;;;;9.79;85.94;95876.81;5004678;28;20074;-77
2022/09/24 05:32:04;;;;;;;19.27;10.82;;;;;;;9.79;85.89;95872.16;5003773;28;20379;-76
2022/09/24 05:34:31;;;;;;;20.58;9.77;;;;;;;9.75;85.89;95875.84;5004301;28;20052;-77
2022/09/24 05:36:58;;;;;;;19.80;10.82;;;;;;;9.70;86.06;95876.03;5006153;28;20050;-78
2022/09/24 05:39:25;;;;;;;19.85;9.85;;;;;;;9.77;85.82;95884.50;5013534;28;20069;-77
2022/09/24 05:41:53;;;;;;;16.35;9.02;;;;;;;9.85;86.24;95886.38;4999794;28;20049;-77
2022/09/24 05:44:20;;;;;;;14.32;9.25;;;;;;;9.90;85.99;95883.50;4995152;28;20082;-78
2022/09/24 05:46:47;;;;;;;21.27;14.20;;;;;;;9.90;86.27;95884.28;4997279;28;20081;-77
2022/09/24 05:49:13;;;;;;;15.15;11.90;;;;;;;9.90;86.33;95883.50;4996918;28;20047;-78
2022/09/24 05:51:40;;;;;;;14.13;9.50;;;;;;;9.87;86.32;95890.38;4997711;28;20050;-78
2022/09/24 05:54:07;;;;;;;11.93;8.50;;;;;;;9.97;86.15;95894.69;4995548;28;20058;-78
2022/09/24 05:56:33;;;;;;;15.88;9.45;;;;;;;10.05;86.43;95896.56;4995617;28;20125;-78
2022/09/24 05:59:01;;;;;;;14.80;9.95;;;;;;;9.94;86.29;95889.88;4996635;28;20557;-77
2022/09/24 06:01:29;;;;;;;14.77;9.25;;;;;;;9.97;86.25;95883.81;4996434;28;20042;-78
2022/09/24 06:03:56;;;;;;;14.82;9.65;;;;;;;10.01;86.05;95883.94;4996816;28;20073;-78
2022/09/24 06:06:22;;;;;;;12.60;8.52;;;;;;;10.07;85.75;95880.69;4996189;28;20050;-77
2022/09/24 06:08:49;;;;;;;12.32;7.57;;;;;;;10.07;85.87;95877.97;4996748;28;20050;-78
2022/09/24 06:11:16;;;;;;;11.82;7.72;;;;;;;10.07;86.08;95877.97;4996534;28;20062;-78
2022/09/24 06:13:42;;;;;;;13.07;7.45;;;;;;;10.13;86.03;95884.06;4996216;28;20056;-77
2022/09/24 06:16:12;;;;;;;10.20;6.63;;;;;;;10.09;85.63;95881.19;4995756;28;20403;-78
2022/09/24 06:18:40;;;;;;;13.63;8.15;;;;;;;10.18;85.81;95884.69;4995844;28;20050;-77
2022/09/24 06:21:08;;;;;;;9.93;6.80;;;;;;;10.06;86.05;95881.81;4995530;28;20049;-77
2022/09/24 06:23:35;;;;;;;9.73;6.88;;;;;;;10.07;86.36;95888.84;4995641;28;20054;-77
2022/09/24 06:26:02;;;;;;;10.88;6.90;;;;;;;10.05;86.19;95891.13;4995907;28;20429;-78
2022/09/24 06:28:28;;;;;;;10.02;7.68;;;;;;;10.12;86.14;95885.97;4995996;28;20042;-78
2022/09/24 06:30:55;;;;;;;14.05;8.48;;;;;;;10.28;86.10;95877.28;4995630;28;20046;-77
2022/09/24 06:33:23;;;;;;;11.65;7.55;;;;;;;10.40;86.08;95882.84;4996650;28;20057;-77
2022/09/24 06:35:49;;;;;;;10.63;7.32;;;;;;;10.56;85.93;95883.88;4996118;28;20097;-77
2022/09/24 06:38:18;;;;;;;10.88;6.97;;;;;;;10.65;86.27;95881.13;4994720;28;20440;-78
2022/09/24 06:40:47;;;;;;;10.30;7.00;;;;;;;10.78;86.04;95882.78;4993897;28;20069;-77
2022/09/24 06:43:14;;;;;;;10.00;6.68;;;;;;;10.92;85.46;95890.72;4995247;28;20050;-77
2022/09/24 06:45:42;;;;;;;11.95;7.28;;;;;;;11.02;84.59;95879.41;4995424;28;20047;-77
2022/09/24 06:48:11;;;;;;;9.18;5.55;;;;;;;11.03;84.33;95888.38;4995654;28;20058;-77
2022/09/24 06:50:40;;;;;;;11.25;6.50;;;;;;;11.16;84.26;95885.38;4996748;28;20125;-78
2022/09/24 06:53:08;;;;;;;10.93;6.78;;;;;;;11.23;83.96;95891.09;4998614;28;20057;-78
2022/09/24 06:55:36;;;;;;;8.88;5.80;;;;;;;11.38;83.43;95877.97;4997661;28;20057;-77
2022/09/24 06:58:05;;;;;;;9.32;5.47;;;;;;;11.51;83.83;95879.63;4996783;28;20038;-78
2022/09/24 07:00:31;;;;;;;8.38;6.20;;;;;;;11.65;83.57;95880.16;4996334;28;20054;-77
2022/09/24 07:02:58;;;;;;;7.45;5.65;;;;;;;11.75;82.97;95890.63;4996990;28;20050;-76
2022/09/24 07:05:24;;;;;;;13.65;6.10;;;;;;;11.70;81.60;95893.56;4998812;28;20070;-78
2022/09/24 07:07:52;;;;;;;9.43;6.53;;;;;;;11.83;82.14;95896.34;4999004;28;20054;-79
2022/09/24 07:10:19;;;;;;;9.10;6.22;;;;;;;11.88;81.43;95899.66;4996943;28;20553;-78
2022/09/24 07:12:46;;;;;;;7.10;5.47;;;;;;;11.98;81.56;95901.97;4997462;28;20536;-75
2022/09/24 07:15:12;;;;;;;14.95;7.00;;;;;;;11.93;82.27;95901.38;4994377;28;20406;-75
2022/09/24 07:17:39;;;;;;;9.30;6.70;;;;;;;11.95;82.86;95904.56;4994625;28;20050;-74
2022/09/24 07:20:06;;;;;;;9.25;6.40;;;;;;;12.06;82.94;95904.94;4994500;28;20047;-76
2022/09/24 07:22:39;;;;;;;14.00;7.20;;;;;;;12.07;83.59;95912.81;4993963;28;20055;-76
2022/09/24 07:25:09;;;;;;;11.05;6.35;;;;;;;12.08;84.38;95913.59;4994168;28;20062;-75
2022/09/24 07:27:36;;;;;;;8.93;6.90;;;;;;;12.23;83.91;95905.53;4993944;28;20054;-75
2022/09/24 07:30:04;;;;;;;8.10;6.60;;;;;;;12.34;84.00;95905.91;4993804;28;20058;-75
2022/09/24 07:32:31;;;;;;;10.90;7.45;;;;;;;12.23;82.96;95899.28;4993833;28;20046;-76
2022/09/24 07:34:57;;;;;;;9.27;6.30;;;;;;;12.34;82.05;95907.84;4994121;28;20053;-76
2022/09/24 07:37:24;;;;;;;8.93;6.15;;;;;;;12.43;82.04;95909.31;4994845;28;20053;-78
2022/09/24 07:39:50;;;;;;;8.77;5.90;;;;;;;12.48;82.07;95917.28;4994091;28;20053;-77
2022/09/24 07:42:18;;;;;;;10.05;6.20;;;;;;;12.54;82.75;95915.13;4993923;28;20046;-76
2022/09/24 07:44:45;;;;;;;9.35;6.82;;;;;;;12.57;83.13;95914.44;4994258;28;20695;-77
2022/09/24 07:47:12;;;;;;;10.30;6.80;;;;;;;12.58;83.51;95915.22;4993643;28;20548;-76
2022/09/24 07:49:41;;;;;;;9.27;6.90;;;;;;;12.61;83.22;95915.34;4993883;28;20061;-77
2022/09/24 07:52:07;;;;;;;8.70;6.05;;;;;;;12.65;82.91;95910.81;4992719;28;20050;-76
2022/09/24 07:54:34;;;;;;;8.70;6.22;;;;;;;12.71;82.78;95920.34;4993948;28;20049;-76
2022/09/24 07:57:01;;;;;;;12.35;6.93;;;;;;;12.77;82.55;95924.44;4993732;28;20054;-76
2022/09/24 07:59:31;;;;;;;9.05;6.13;;;;;;;12.80;82.70;95928.44;4993521;28;20505;-76
2022/09/24 08:01:57;;;;;;;7.53;5.82;;;;;;;12.84;82.28;95929.34;4993148;28;20141;-76
2022/09/24 08:04:24;;;;;;;10.63;6.90;;;;;;;12.82;82.13;95930.84;4993956;28;20051;-77
2022/09/24 08:06:50;;;;;;;8.25;6.13;;;;;;;12.86;82.38;95926.28;4993930;28;20054;-80
2022/09/24 08:09:17;;;;;;;13.40;6.45;;;;;;;12.87;81.87;95933.34;4993932;28;20049;-77
2022/09/24 08:11:43;;;;;;;8.27;5.90;;;;;;;12.86;81.83;95926.28;4993166;28;20126;-78
2022/09/24 08:14:11;;;;;;;8.57;5.40;;;;;;;12.85;82.37;95930.16;4993757;28;20085;-77
2022/09/24 08:16:40;;;;;;;7.80;5.55;;;;;;;12.89;82.85;95940.03;4993048;28;20442;-78
2022/09/24 08:19:12;;;;;;;7.95;5.68;;;;;;;12.90;83.18;95952.59;4993321;28;20102;-77
2022/09/24 08:21:38;;;;;;;8.02;5.97;;;;;;;12.91;83.95;95947.91;4995001;28;20133;-76
2022/09/24 08:24:05;;;;;;;9.02;6.28;;;;;;;12.85;84.33;95941.09;4993681;28;20105;-75
2022/09/24 08:26:32;;;;;;;9.88;6.50;;;;;;;12.89;84.47;95952.91;4993222;28;20417;-77
2022/09/24 08:28:58;;;;;;;11.73;7.88;;;;;;;12.81;86.37;95943.69;4992777;28;20046;-77
2022/09/24 08:31:25;;;;;;;9.95;6.85;;;;;;;12.87;87.07;95947.78;4993019;28;20047;-77
2022/09/24 08:33:52;;;;;;;14.25;7.50;;;;;;;12.89;86.82;95947.44;4992918;28;20057;-77
2022/09/24 08:36:21;;;;;;;9.85;7.28;;;;;;;12.77;86.29;95951.78;4993276;28;20046;-77
2022/09/24 08:38:47;;;;;;;10.10;6.90;;;;;;;12.73;86.50;95948.13;4992095;28;20459;-77
2022/09/24 08:41:32;;;;;;;9.88;7.22;;;;;;;12.68;87.07;95950.28;4990175;28;20513;-77
2022/09/24 08:44:03;;;;;;;8.95;7.03;;;;;;;12.74;87.88;95941.53;4992920;28;20553;-77
2022/09/24 08:49:25;;;;;;;13.38;7.85;;;;;;;12.75;89.15;95948.59;4992800;28;20048;-77
2022/09/24 08:52:01;;;;;;;12.57;8.38;;;;;;;12.74;89.72;95949.75;4991913;28;20054;-77
2022/09/24 08:54:30;;;;;;;14.82;9.20;;;;;;;12.63;91.17;95951.31;4992470;28;20495;-76
2022/09/24 08:56:59;;;;;;;12.73;8.98;;;;;;;12.72;90.83;95954.72;4991969;28;20513;-77
2022/09/24 08:59:29;;;;;;;10.52;8.18;;;;;;;12.84;90.78;95950.41;4992668;28;20046;-77
2022/09/24 09:02:12;;;;;;;13.60;8.52;;;;;;;12.88;90.61;95945.84;4992328;28;20043;-76
2022/09/24 09:04:46;;;;;;;;;;;;;;;12.84;91.79;95947.66;4992449;28;20133;-77
2022/09/24 09:07:20;;;;;;;11.52;7.82;;;;;;;12.84;92.08;95956.66;4992679;28;20439;-77
2022/09/24 09:09:50;;;;;;;13.98;9.20;;;;;;;12.79;92.10;95954.97;4992828;28;20042;-77
2022/09/24 09:12:23;;;;;;;10.45;8.27;;;;;;;12.80;92.53;95955.78;4972987;28;20490;-78
2022/09/24 09:14:55;;;;;;;13.73;8.25;;;;;;;12.78;92.79;95958.81;4972312;28;20050;-78
2022/09/24 09:17:32;;;;;;;10.88;7.53;;;;;;;12.86;92.73;95964.53;4987691;28;20073;-77
2022/09/24 09:20:05;;;;;;;14.55;8.48;;;;;;;12.86;93.26;95964.53;4991102;28;20050;-77
2022/09/24 09:22:37;;;;;;;10.40;7.57;;;;;;;12.86;93.43;95970.78;4992597;28;20057;-77
2022/09/24 09:25:14;;;;;;;11.20;8.90;;;;;;;12.89;94.43;95969.31;4992048;28;20046;-76
2022/09/24 09:27:42;;;;;;;10.35;7.70;;;;;;;12.80;94.67;95967.50;4991973;28;20058;-77
2022/09/24 09:30:15;;;;;;;12.35;9.02;;;;;;;12.79;95.20;95965.13;4975105;28;20513;-78
2022/09/24 09:32:56;;;;;;;11.48;7.68;;;;;;;12.83;95.47;95970.66;4992144;28;20050;-78
2022/09/24 09:35:32;;;;;;;11.95;8.50;;;;;;;12.76;96.15;95976.72;4976452;28;20043;-78
2022/09/24 09:38:11;;;;;;;11.98;8.80;;;;;;;12.79;96.59;95965.13;4992611;28;20138;-77
2022/09/24 09:40:43;;;;;;;13.50;9.82;;;;;;;12.74;97.47;95966.13;4992163;28;20069;-79
2022/09/24 09:43:12;;;;;;;13.98;10.73;;;;;;;12.83;97.57;95970.66;5000394;23;20486;-82
2022/09/24 09:48:18;;;;;;;16.00;14.05;;;;;;;12.93;97.70;95975.69;5292208;22;20107;-81
2022/09/24 09:50:49;;;;;;;14.93;11.98;;;;;;;12.88;97.56;95973.19;5012779;28;20080;-84
2022/09/24 09:53:20;;;;;;;15.93;11.98;;;;;;;12.95;97.50;95968.75;5049557;28;20045;-87
2022/09/24 09:55:52;;;;;;;13.80;10.85;;;;;;;13.05;97.84;95976.50;5016015;28;20050;-80
2022/09/24 09:58:23;;;;;;;15.07;10.30;;;;;;;13.04;97.88;95974.06;5032918;28;20053;-86
2022/09/24 10:00:50;;;;;;;15.40;10.23;;;;;;;13.12;97.82;95973.16;5084664;22;20052;-87
2022/09/24 10:03:24;;;;;;;14.98;10.98;;;;;;;13.01;99.30;95972.03;5020565;28;20078;-78
2022/09/24 10:05:57;;;;;;;;;;;;;;;13.13;99.44;95969.28;4991457;28;20050;-78
2022/09/24 10:08:25;;;;;;;14.27;10.02;;;;;;;13.20;98.94;95969.50;4996748;28;19922;-80
2022/09/24 10:10:59;;;;;;;11.55;9.48;;;;;;;13.22;99.22;95967.28;4992228;28;20093;-80
2022/09/24 10:13:58;;;;;;;11.95;9.48;;;;;;;13.19;99.41;95967.91;5014980;22;20043;-86
2022/09/24 10:16:26;;;;;;;11.13;9.13;;;;;;;13.26;99.01;95962.72;5001317;28;20057;-80
2022/09/24 10:21:33;;;;;;;13.05;9.70;;;;;;;13.29;97.85;95972.94;5009160;22;20058;-77
2022/09/24 10:24:02;;;;;;;12.00;9.05;;;;;;;13.16;97.58;95976.03;4996768;28;20072;-76
2022/09/24 10:26:36;;;;;;;12.88;9.00;;;;;;;13.35;97.73;95972.72;4996543;28;20054;-75
2022/09/24 10:31:49;;;;;;;11.38;8.75;;;;;;;13.58;98.96;95968.34;4997641;28;20113;-76
2022/09/24 10:34:22;;;;;;;11.98;9.73;;;;;;;13.66;98.10;95981.06;4996799;28;20050;-76
2022/09/24 10:36:58;;;;;;;13.52;9.13;;;;;;;13.69;98.16;95968.66;4995748;28;20050;-75
2022/09/24 10:39:24;;;;;;;11.73;9.55;;;;;;;13.78;97.88;95978.31;4994624;28;20055;-75
2022/09/24 10:41:52;;;;;;;10.45;8.50;;;;;;;13.78;97.53;95972.84;4995572;28;20054;-77
2022/09/24 10:44:20;;;;;;;11.70;9.00;;;;;;;13.80;98.07;95970.53;4995883;28;20056;-77
2022/09/24 10:47:09;;;;;;;12.73;8.95;;;;;;;13.76;98.72;95979.78;5005369;28;20061;-77
2022/09/24 10:49:52;;;;;;;19.73;11.20;;;;;;;13.66;99.59;95969.31;5014743;28;20053;-76
2022/09/24 10:52:35;;;;;;;14.70;10.68;;;;;;;13.64;100.00;95980.63;5017131;28;20508;-77
2022/09/24 10:55:14;;;;;;;13.77;9.90;;;;;;;13.71;100.00;95971.81;5015755;28;20051;-74
2022/09/24 10:57:49;;;;;;;17.00;10.13;;;;;;;13.60;99.91;95976.19;5016079;28;20057;-77
2022/09/24 11:00:20;;;;;;;15.75;9.43;;;;;;;13.57;99.83;95969.44;4992490;28;20061;-73
2022/09/24 11:03:24;;;;;;;14.90;9.60;;;;;;;13.46;99.69;95976.56;5010804;28;20136;-76
2022/09/24 11:05:54;;;;;;;14.43;9.82;;;;;;;13.48;99.71;95972.34;4998506;28;20081;-76
2022/09/24 11:08:34;;;;;;;12.77;10.00;;;;;;;13.46;100.00;95971.09;5011868;28;20049;-75
2022/09/24 11:11:20;;;;;;;12.05;9.13;;;;;;;13.50;100.00;95967.31;5011188;28;20054;-75
2022/09/24 11:14:00;;;;;;;12.35;9.35;;;;;;;13.62;100.00;95968.41;5012765;28;20056;-75
2022/09/24 11:16:48;;;;;;;13.23;9.30;;;;;;;13.73;100.00;95964.88;5012595;28;20057;-79
2022/09/24 11:19:32;;;;;;;16.60;10.48;;;;;;;13.72;100.00;95968.72;5017442;28;20053;-77
2022/09/24 11:22:11;;;;;;;13.05;9.40;;;;;;;13.73;99.75;95970.34;5038789;28;20676;-77
2022/09/24 11:24:59;;;;;;;11.73;9.98;;;;;;;13.83;99.29;95975.31;5036741;28;20045;-76
2022/09/24 11:27:50;;;;;;;9.95;8.65;;;;;;;13.88;99.22;95971.50;5032104;28;20096;-78
2022/09/24 11:30:20;;;;;;;11.52;8.55;;;;;;;13.89;99.00;95972.34;5033414;28;20481;-78
2022/09/24 11:33:01;;;;;;;12.82;8.75;;;;;;;13.90;99.10;95973.94;5033605;28;20075;-77
2022/09/24 11:35:52;;;;;;;11.68;8.52;;;;;;;13.93;98.98;95978.69;5033386;28;20057;-78
2022/09/24 11:38:28;;;;;;;14.32;9.00;;;;;;;13.91;98.61;95964.56;5010584;28;20054;-78
2022/09/24 11:41:13;;;;;;;11.95;8.77;;;;;;;13.94;99.07;95974.81;5013862;28;20056;-76
2022/09/24 11:44:03;;;;;;;11.88;9.18;;;;;;;13.92;99.07;95971.63;5032144;28;20049;-78
2022/09/24 11:46:46;;;;;;;11.65;9.50;;;;;;;13.93;99.41;95981.44;5033643;28;20438;-81
2022/09/24 11:49:43;;;;;;;13.27;10.07;;;;;;;13.93;99.46;95970.47;5034489;28;20049;-78
2022/09/24 11:52:14;;;;;;;14.40;9.82;;;;;;;13.90;99.52;95973.94;5035823;28;20307;-77
2022/09/24 11:54:49;;;;;;;15.55;10.73;;;;;;;13.93;100.00;95967.75;5030860;28;20049;-77
2022/09/24 11:57:34;;;;;;;13.57;9.65;;;;;;;13.91;100.00;95961.81;5034378;28;20061;-76
2022/09/24 12:00:05;;;;;;;13.77;9.80;;;;;;;13.83;100.00;95958.09;5034165;28;20057;-77